Terminal Aerodrome Forecast
Issued by NWS Charleston, WV

Current Version | Previous Version | Graphics & Text | Print | Product List | Glossary On
Versions: 1 2 3 4 5 6 7 8 9 10 11 12 13 14 15 16 17 18 19 20 21 22 23 24 25 26 27 28
000
FTUS41 KRLX 050500 RRA
TAFBKW
TAF
KBKW 050542Z 0506/0606 35009KT 5SM -RA BR OVC003
     FM050800 34010G15KT 3SM -FZRAPL BR OVC003
     FM051100 34011G17KT 1 1/2SM -SNPL OVC003
     FM051400 35011G17KT 3/4SM -SN OVC003
     FM051600 35010G15KT 2SM -SN OVC008
     FM051800 34009KT 5SM -SN BR OVC015
     FM052100 34010G15KT P6SM OVC020=

USA.gov is the U.S. government's official web portal to all federal, state and local government web resources and services.